Time;durP1;ratioP1;P1;durP2;ratioP2;P2;SDS_P1;SDS_P2;PMS_P1;PMS_P2;Temp;Humidity;BMP_temperature;BMP_pressure;BME280_temperature;BME280_humidity;BME280_pressure;Samples;Min_cycle;Max_cycle;Signal;HPM_P1;HPM_P2
2022/08/17 00:00:21;;;;;;;6.45;3.72;;;26.30;96.70;;;;;;4964965;28;20050;-77
2022/08/17 00:03:12;;;;;;;7.45;3.90;;;26.20;96.70;;;;;;4956773;28;20050;-77
2022/08/17 00:05:44;;;;;;;9.68;4.03;;;26.10;96.70;;;;;;4964301;28;20321;-77
2022/08/17 00:08:14;;;;;;;6.00;3.53;;;26.10;96.70;;;;;;4966513;28;20541;-77
2022/08/17 00:10:46;;;;;;;7.32;3.50;;;26.20;96.70;;;;;;4944917;28;20050;-77
2022/08/17 00:13:17;;;;;;;5.93;3.05;;;26.10;96.70;;;;;;4960395;28;20051;-77
2022/08/17 00:15:46;;;;;;;7.63;3.60;;;26.10;96.70;;;;;;4958267;28;20043;-78
2022/08/17 00:18:14;;;;;;;7.72;3.88;;;26.10;96.70;;;;;;4964524;28;20043;-78
2022/08/17 00:21:04;;;;;;;7.57;2.95;;;26.00;96.70;;;;;;4962403;28;20043;-77
2022/08/17 00:23:39;;;;;;;8.82;3.97;;;26.00;96.70;;;;;;4965778;28;20397;-76
2022/08/17 00:26:18;;;;;;;7.20;3.30;;;26.00;96.70;;;;;;4965843;28;20508;-76
2022/08/17 00:29:07;;;;;;;5.70;3.80;;;26.00;96.70;;;;;;4958430;28;20046;-77
2022/08/17 00:31:36;;;;;;;9.32;3.72;;;26.00;96.70;;;;;;4949459;28;20046;-76
2022/08/17 00:34:05;;;;;;;6.43;3.67;;;26.00;96.70;;;;;;4959079;28;20051;-77
2022/08/17 00:36:33;;;;;;;6.32;3.20;;;26.00;96.70;;;;;;4962576;28;20520;-77
2022/08/17 00:39:01;;;;;;;9.20;3.10;;;25.90;96.70;;;;;;4964720;28;20102;-76
2022/08/17 00:41:31;;;;;;;6.25;3.28;;;25.80;96.70;;;;;;4960625;28;20042;-76
2022/08/17 00:44:03;;;;;;;9.90;4.13;;;25.70;96.70;;;;;;4973027;28;20082;-76
2022/08/17 00:46:34;;;;;;;8.70;3.55;;;25.70;96.70;;;;;;4960561;28;20070;-77
2022/08/17 00:49:04;;;;;;;5.38;3.20;;;25.70;96.70;;;;;;4974254;28;20047;-76
2022/08/17 00:51:37;;;;;;;7.60;3.78;;;25.70;96.70;;;;;;4959785;28;20138;-76
2022/08/17 00:54:09;;;;;;;5.75;3.75;;;25.70;96.70;;;;;;4960566;28;20145;-75
2022/08/17 00:56:43;;;;;;;6.10;3.65;;;25.80;96.70;;;;;;4948367;28;20413;-76
2022/08/17 00:59:16;;;;;;;5.55;3.15;;;25.80;96.70;;;;;;4965126;28;20046;-76
2022/08/17 01:01:46;;;;;;;7.43;3.67;;;25.80;96.70;;;;;;4948006;28;20046;-77
2022/08/17 01:04:16;;;;;;;5.30;3.38;;;25.70;96.70;;;;;;4962606;28;20465;-76
2022/08/17 01:06:47;;;;;;;5.70;3.83;;;25.70;96.70;;;;;;4962121;28;20043;-77
2022/08/17 01:09:16;;;;;;;7.35;3.50;;;25.70;96.70;;;;;;4961780;28;20042;-76
2022/08/17 01:11:50;;;;;;;7.15;3.70;;;25.70;96.70;;;;;;4963642;28;20097;-76
2022/08/17 01:14:20;;;;;;;11.60;3.97;;;25.70;96.70;;;;;;4959590;28;20489;-76
2022/08/17 01:16:50;;;;;;;9.65;3.40;;;25.60;96.70;;;;;;4963583;28;20421;-76
2022/08/17 01:19:21;;;;;;;7.28;3.90;;;25.50;96.70;;;;;;4960550;28;20073;-76
2022/08/17 01:21:53;;;;;;;7.22;3.50;;;25.50;96.70;;;;;;4960661;28;20050;-76
2022/08/17 01:24:23;;;;;;;7.28;3.20;;;25.50;96.70;;;;;;4959814;28;20047;-76
2022/08/17 01:26:51;;;;;;;4.90;3.30;;;25.50;96.70;;;;;;4961499;28;20130;-76
2022/08/17 01:29:24;;;;;;;7.38;3.30;;;25.60;96.70;;;;;;4964136;28;20474;-76
2022/08/17 01:31:56;;;;;;;8.10;3.65;;;25.60;96.70;;;;;;4958102;28;20134;-77
2022/08/17 01:34:25;;;;;;;4.85;3.15;;;25.50;96.70;;;;;;4948603;28;20567;-76
2022/08/17 01:37:10;;;;;;;5.47;3.30;;;25.50;96.70;;;;;;4963246;28;20066;-76
2022/08/17 01:39:43;;;;;;;6.50;3.30;;;25.40;96.70;;;;;;4949615;28;20185;-76
2022/08/17 01:42:19;;;;;;;7.55;3.53;;;25.30;96.70;;;;;;4948665;28;20504;-76
2022/08/17 01:44:49;;;;;;;8.10;3.83;;;25.30;96.70;;;;;;4964900;28;20043;-76
2022/08/17 01:47:17;;;;;;;6.32;3.60;;;25.30;96.70;;;;;;4943602;28;20062;-75
2022/08/17 01:49:46;;;;;;;8.30;3.88;;;25.40;96.70;;;;;;4967420;28;20492;-76
2022/08/17 01:52:15;;;;;;;8.48;3.42;;;25.40;96.70;;;;;;4960615;28;20055;-76
2022/08/17 01:54:46;;;;;;;7.10;4.38;;;25.40;96.70;;;;;;4957484;28;20126;-76
2022/08/17 01:57:14;;;;;;;6.30;3.58;;;25.30;96.70;;;;;;4959286;28;20059;-76
2022/08/17 01:59:42;;;;;;;6.85;3.67;;;25.30;96.70;;;;;;4962042;28;20039;-76
2022/08/17 02:02:11;;;;;;;9.60;4.15;;;25.20;96.70;;;;;;4960638;28;20997;-76
2022/08/17 02:05:04;;;;;;;8.60;3.60;;;25.10;96.70;;;;;;4965862;28;20061;-75
2022/08/17 02:07:35;;;;;;;8.18;4.40;;;25.10;96.70;;;;;;4957674;28;20189;-76
2022/08/17 02:10:25;;;;;;;7.68;3.72;;;25.10;96.70;;;;;;4962295;28;20102;-76
2022/08/17 02:13:02;;;;;;;9.43;4.20;;;25.10;96.70;;;;;;4961980;28;20043;-76
2022/08/17 02:15:31;;;;;;;6.60;4.07;;;25.00;96.70;;;;;;4962130;28;20093;-76
2022/08/17 02:17:59;;;;;;;7.43;4.07;;;25.00;96.70;;;;;;4959253;28;20053;-76
2022/08/17 02:20:30;;;;;;;6.97;3.90;;;25.00;96.70;;;;;;4955884;28;20142;-76
2022/08/17 02:23:19;;;;;;;8.05;4.07;;;25.00;96.70;;;;;;4941832;29;20070;-76
2022/08/17 02:25:49;;;;;;;7.78;4.45;;;25.00;96.70;;;;;;4939774;29;20063;-76
2022/08/17 02:28:18;;;;;;;6.47;3.92;;;25.00;96.70;;;;;;4937581;29;20485;-76
2022/08/17 02:30:46;;;;;;;7.65;4.03;;;24.90;96.70;;;;;;4942602;29;20051;-76
2022/08/17 02:33:29;;;;;;;5.95;3.40;;;25.00;96.70;;;;;;4906489;29;20518;-75
2022/08/17 02:36:11;;;;;;;6.82;4.30;;;24.90;96.70;;;;;;4928492;29;20070;-76
2022/08/17 02:38:40;;;;;;;8.70;3.97;;;24.90;96.70;;;;;;4926888;29;20048;-76
2022/08/17 02:41:11;;;;;;;6.35;3.53;;;24.80;96.70;;;;;;4938992;28;20146;-76
2022/08/17 02:43:40;;;;;;;8.98;4.07;;;24.80;96.70;;;;;;4962147;28;20063;-76
2022/08/17 02:46:09;;;;;;;7.63;3.67;;;24.80;96.70;;;;;;4959377;28;20097;-76
2022/08/17 02:48:38;;;;;;;4.82;3.70;;;24.80;96.70;;;;;;4963501;28;20486;-75
2022/08/17 02:51:07;;;;;;;10.55;3.97;;;24.70;96.70;;;;;;4966312;28;20098;-76
2022/08/17 02:53:36;;;;;;;6.28;4.22;;;24.60;96.70;;;;;;4965163;28;20042;-75
2022/08/17 02:56:05;;;;;;;5.50;3.55;;;24.60;96.70;;;;;;4948737;28;20039;-76
2022/08/17 02:58:35;;;;;;;6.82;4.00;;;24.60;96.70;;;;;;4966547;28;20128;-76
2022/08/17 03:01:05;;;;;;;6.88;3.97;;;24.60;96.70;;;;;;4966845;28;20055;-76
2022/08/17 03:03:34;;;;;;;4.90;3.58;;;24.60;96.70;;;;;;4972900;28;20050;-76
2022/08/17 03:06:03;;;;;;;6.10;3.92;;;24.60;96.70;;;;;;4950863;28;20042;-76
2022/08/17 03:08:31;;;;;;;8.70;4.22;;;24.60;96.70;;;;;;4966320;28;20157;-76
2022/08/17 03:11:00;;;;;;;8.20;4.50;;;24.60;96.70;;;;;;4961998;28;20133;-76
2022/08/17 03:13:29;;;;;;;9.70;4.53;;;24.60;96.70;;;;;;4965631;28;20047;-75
2022/08/17 03:15:59;;;;;;;10.18;3.95;;;24.50;96.70;;;;;;4950347;28;20077;-76
2022/08/17 03:18:27;;;;;;;8.82;4.68;;;24.50;96.70;;;;;;4961090;28;20043;-76
2022/08/17 03:20:58;;;;;;;9.52;4.47;;;24.50;96.70;;;;;;4967525;28;20606;-76
2022/08/17 03:23:27;;;;;;;6.22;4.35;;;24.50;96.70;;;;;;4964734;28;20054;-76
2022/08/17 03:25:58;;;;;;;6.95;4.07;;;24.50;96.70;;;;;;4956158;28;20061;-76
2022/08/17 03:28:27;;;;;;;5.70;3.72;;;24.50;96.70;;;;;;4961776;28;20050;-75
2022/08/17 03:30:55;;;;;;;7.10;3.80;;;24.50;96.70;;;;;;4963294;28;20122;-76
2022/08/17 03:33:25;;;;;;;6.60;4.05;;;24.50;96.70;;;;;;4933692;28;20170;-76
2022/08/17 03:35:54;;;;;;;8.23;4.18;;;24.40;96.70;;;;;;4957851;28;20042;-76
2022/08/17 03:38:23;;;;;;;5.53;3.95;;;24.50;96.70;;;;;;4959786;28;20046;-75
2022/08/17 03:40:52;;;;;;;9.02;5.00;;;24.50;96.70;;;;;;4966257;28;20043;-76
2022/08/17 03:43:28;;;;;;;11.95;4.72;;;24.40;96.70;;;;;;4964239;28;20055;-77
2022/08/17 03:57:25;;;;;;;;;;;24.30;96.70;;;;;;4967204;28;20572;-76
2022/08/17 03:59:54;;;;;;;8.07;4.65;;;24.30;96.70;;;;;;4960424;28;20434;-76
2022/08/17 04:02:25;;;;;;;7.90;4.22;;;24.30;96.70;;;;;;4959583;28;20066;-76
2022/08/17 04:04:56;;;;;;;10.00;4.55;;;24.20;96.70;;;;;;4966987;28;20567;-77
2022/08/17 04:07:27;;;;;;;9.60;4.20;;;24.20;96.70;;;;;;4962301;28;20401;-76
2022/08/17 04:09:56;;;;;;;7.28;4.63;;;24.20;96.70;;;;;;4949110;28;20393;-76
2022/08/17 04:12:29;;;;;;;5.75;4.22;;;24.30;96.70;;;;;;4962912;28;20050;-76
2022/08/17 04:14:58;;;;;;;10.07;4.90;;;24.30;96.70;;;;;;4943007;28;20075;-76
2022/08/17 04:17:28;;;;;;;6.55;4.25;;;24.40;96.70;;;;;;4965913;28;20045;-76
2022/08/17 04:19:57;;;;;;;6.50;4.13;;;24.40;96.70;;;;;;4961765;28;20100;-76
2022/08/17 04:22:26;;;;;;;7.03;4.43;;;24.30;96.70;;;;;;4965319;28;20074;-76
2022/08/17 04:25:06;;;;;;;8.75;4.65;;;24.30;96.70;;;;;;4961092;28;20054;-76
2022/08/17 04:27:35;;;;;;;10.82;4.88;;;24.30;96.70;;;;;;4959559;28;20460;-76
2022/08/17 04:30:06;;;;;;;10.57;4.22;;;24.30;96.70;;;;;;4963996;28;20152;-76
2022/08/17 04:32:50;;;;;;;7.35;4.20;;;24.30;96.70;;;;;;4965624;28;20097;-76
2022/08/17 04:35:37;;;;;;;6.95;3.90;;;24.40;96.70;;;;;;4958904;28;20082;-75
2022/08/17 04:38:06;;;;;;;9.80;4.05;;;24.50;96.70;;;;;;4957888;28;20047;-76
2022/08/17 04:43:23;;;;;;;7.50;3.95;;;24.50;96.70;;;;;;4955208;28;20414;-76
2022/08/17 04:45:54;;;;;;;7.60;4.28;;;24.40;96.70;;;;;;4964206;28;20575;-76
2022/08/17 04:48:25;;;;;;;7.57;3.92;;;24.30;96.70;;;;;;4964362;28;20114;-75
2022/08/17 04:51:06;;;;;;;6.88;4.35;;;24.30;96.70;;;;;;4947997;28;20121;-76
2022/08/17 04:53:34;;;;;;;8.38;4.13;;;24.30;96.70;;;;;;4947385;28;20047;-77
2022/08/17 04:56:04;;;;;;;8.35;5.40;;;24.30;96.70;;;;;;4949856;28;20057;-76
2022/08/17 04:58:32;;;;;;;9.00;5.30;;;24.30;96.70;;;;;;4962274;28;20109;-76
2022/08/17 05:01:01;;;;;;;10.63;6.93;;;24.30;96.70;;;;;;4969331;28;20580;-76
2022/08/17 05:03:29;;;;;;;10.50;6.75;;;24.30;96.70;;;;;;4958866;28;20505;-76
2022/08/17 05:05:58;;;;;;;12.40;8.13;;;24.40;96.70;;;;;;4963104;28;20047;-76
2022/08/17 05:08:27;;;;;;;14.13;8.20;;;24.40;96.70;;;;;;4959862;28;20043;-76
2022/08/17 05:10:56;;;;;;;14.57;8.20;;;24.40;96.70;;;;;;4948464;28;20118;-76
2022/08/17 05:13:27;;;;;;;11.13;7.50;;;24.30;96.70;;;;;;4958264;28;20042;-76
2022/08/17 05:15:57;;;;;;;9.55;6.32;;;24.30;96.70;;;;;;4962289;28;21266;-76
2022/08/17 05:18:26;;;;;;;10.95;6.10;;;24.30;96.70;;;;;;4960010;28;20102;-76
2022/08/17 05:20:55;;;;;;;10.30;6.75;;;24.30;96.70;;;;;;4946847;28;20054;-76
2022/08/17 05:23:26;;;;;;;11.73;6.75;;;24.40;96.70;;;;;;4958532;28;20416;-76
2022/08/17 05:26:13;;;;;;;7.40;6.03;;;24.40;96.70;;;;;;4960361;28;20054;-76
2022/08/17 05:28:55;;;;;;;8.60;6.10;;;24.40;96.70;;;;;;4961180;28;20121;-76
2022/08/17 05:31:26;;;;;;;10.80;6.03;;;24.30;96.70;;;;;;4953494;28;20078;-75
2022/08/17 05:33:54;;;;;;;13.02;5.90;;;24.40;96.70;;;;;;4953846;28;20109;-72
2022/08/17 05:36:23;;;;;;;12.10;6.68;;;24.40;96.70;;;;;;4960854;28;20521;-74
2022/08/17 05:39:11;;;;;;;13.93;6.82;;;24.40;96.70;;;;;;4955775;28;20134;-76
2022/08/17 05:41:46;;;;;;;12.63;6.50;;;24.50;96.70;;;;;;4947660;28;20066;-76
2022/08/17 05:44:15;;;;;;;10.27;6.10;;;24.60;96.70;;;;;;4933586;28;20376;-76
2022/08/17 05:46:47;;;;;;;11.00;5.50;;;24.60;96.70;;;;;;4959726;28;20070;-77
2022/08/17 05:49:21;;;;;;;8.40;5.63;;;24.60;96.70;;;;;;4958361;28;20053;-76
2022/08/17 05:52:10;;;;;;;13.48;5.72;;;24.70;96.70;;;;;;4963432;28;20049;-75
2022/08/17 05:54:49;;;;;;;13.05;5.93;;;24.70;96.70;;;;;;4960923;28;20053;-76
2022/08/17 05:57:42;;;;;;;9.88;5.80;;;24.80;96.70;;;;;;4963153;28;20078;-77
2022/08/17 06:00:24;;;;;;;9.23;5.70;;;24.90;96.70;;;;;;4959183;28;20078;-74
2022/08/17 06:03:10;;;;;;;13.15;5.50;;;24.90;96.70;;;;;;4956024;28;20082;-76
2022/08/17 06:05:53;;;;;;;7.93;5.13;;;24.90;96.70;;;;;;4959367;28;20626;-76
2022/08/17 06:08:30;;;;;;;7.15;5.93;;;25.00;96.70;;;;;;4958687;28;20070;-78
2022/08/17 06:11:08;;;;;;;9.32;5.60;;;25.00;96.70;;;;;;4953071;28;20528;-77
2022/08/17 06:13:59;;;;;;;9.73;4.68;;;25.00;96.70;;;;;;4953084;28;20062;-76
2022/08/17 06:16:34;;;;;;;11.32;4.50;;;25.10;96.70;;;;;;4955003;28;20050;-77
2022/08/17 06:19:10;;;;;;;8.95;5.03;;;25.20;96.70;;;;;;4947578;28;20074;-76
2022/08/17 06:21:41;;;;;;;;;;;25.10;96.70;;;;;;4956315;28;20108;-76
2022/08/17 06:24:27;;;;;;;7.18;4.38;;;25.10;96.70;;;;;;4959211;28;20373;-76
2022/08/17 06:27:05;;;;;;;9.20;4.78;;;25.20;96.70;;;;;;4961455;28;20051;-76
2022/08/17 06:29:43;;;;;;;7.43;4.38;;;25.30;96.70;;;;;;4972453;28;20490;-76
2022/08/17 06:32:13;;;;;;;11.80;5.20;;;25.30;96.70;;;;;;4962763;28;20043;-76
2022/08/17 06:34:42;;;;;;;9.57;4.75;;;25.40;96.70;;;;;;4960427;28;20129;-76
2022/08/17 06:37:29;;;;;;;10.50;5.72;;;25.40;96.70;;;;;;4954147;28;20051;-78
2022/08/17 06:40:13;;;;;;;11.10;5.38;;;25.50;96.70;;;;;;4971148;28;20098;-78
2022/08/17 06:42:49;;;;;;;9.77;4.82;;;25.50;96.70;;;;;;4958147;28;20142;-77
2022/08/17 06:45:38;;;;;;;10.40;4.63;;;25.50;96.70;;;;;;4956911;28;20584;-77
2022/08/17 06:48:11;;;;;;;11.00;5.20;;;25.60;96.70;;;;;;4942912;28;20070;-75
2022/08/17 06:50:46;;;;;;;7.18;4.78;;;25.70;96.70;;;;;;4962923;28;20053;-75
2022/08/17 06:53:23;;;;;;;7.50;4.65;;;25.70;96.70;;;;;;4952106;28;20047;-77
2022/08/17 06:55:57;;;;;;;7.32;4.60;;;25.80;96.70;;;;;;4957604;28;20114;-77
2022/08/17 06:58:30;;;;;;;10.98;4.53;;;25.80;96.70;;;;;;4960625;28;20122;-78
2022/08/17 07:01:07;;;;;;;7.85;4.63;;;25.80;96.70;;;;;;4964427;28;20073;-75
2022/08/17 07:03:37;;;;;;;;;;;25.90;96.70;;;;;;4970707;28;20071;-76
2022/08/17 07:06:13;;;;;;;7.88;5.28;;;26.00;96.70;;;;;;4963827;28;19926;-76
2022/08/17 07:08:49;;;;;;;9.23;4.43;;;26.00;96.70;;;;;;4958893;28;20061;-76
2022/08/17 07:11:26;;;;;;;10.43;5.40;;;26.00;96.70;;;;;;4959633;28;20558;-76
2022/08/17 07:14:02;;;;;;;10.52;4.65;;;26.00;96.70;;;;;;4962099;28;20609;-75
2022/08/17 07:16:37;;;;;;;7.05;4.20;;;26.00;96.70;;;;;;4964025;28;20043;-76
2022/08/17 07:19:06;;;;;;;7.18;4.05;;;26.10;96.70;;;;;;4963199;28;20046;-76
2022/08/17 07:21:48;;;;;;;9.02;4.40;;;26.20;96.70;;;;;;4964316;28;20101;-76
2022/08/17 07:24:28;;;;;;;8.48;4.75;;;26.30;96.70;;;;;;4962437;28;20047;-76
2022/08/17 07:27:10;;;;;;;8.02;3.78;;;26.30;96.70;;;;;;4962905;28;20055;-77
2022/08/17 07:29:42;;;;;;;10.85;4.60;;;26.40;96.70;;;;;;4965873;28;20046;-76
2022/08/17 07:32:17;;;;;;;10.27;4.47;;;26.50;96.70;;;;;;4964463;28;20062;-77
2022/08/17 07:35:14;;;;;;;11.32;4.53;;;26.60;96.70;;;;;;4966676;28;20078;-77
2022/08/17 07:37:43;;;;;;;;;;;26.60;96.70;;;;;;4915395;28;20059;-77
2022/08/17 07:40:27;;;;;;;9.88;4.15;;;26.70;96.70;;;;;;4963709;28;19981;-75
2022/08/17 07:43:17;;;;;;;6.35;3.72;;;26.80;96.70;;;;;;4964845;28;20109;-75
2022/08/17 07:48:43;;;;;;;9.02;4.18;;;27.00;96.70;;;;;;4967813;28;20054;-77
2022/08/17 07:51:18;;;;;;;8.90;4.00;;;27.10;96.70;;;;;;4962003;28;20084;-78
2022/08/17 07:53:46;;;;;;;10.07;4.22;;;27.10;96.70;;;;;;4960907;28;20066;-77
2022/08/17 07:56:35;;;;;;;11.85;3.83;;;27.20;96.70;;;;;;4964403;28;20043;-78
2022/08/17 07:59:15;;;;;;;11.68;4.22;;;27.30;96.70;;;;;;4943648;28;20489;-77
2022/08/17 08:01:46;;;;;;;10.05;3.97;;;27.50;96.70;;;;;;4962020;28;20070;-78
2022/08/17 08:04:28;;;;;;;12.23;4.45;;;27.60;96.70;;;;;;4958947;28;20470;-79
2022/08/17 08:07:25;;;;;;;9.65;3.85;;;27.60;96.70;;;;;;4964161;28;20051;-77
2022/08/17 08:10:05;;;;;;;10.32;3.85;;;27.70;96.70;;;;;;4960042;28;20058;-77
2022/08/17 08:12:36;;;;;;;10.27;2.92;;;27.80;96.70;;;;;;4949827;28;20047;-79
2022/08/17 08:15:12;;;;;;;10.02;3.25;;;27.80;96.70;;;;;;4945632;28;20056;-76
2022/08/17 08:17:50;;;;;;;;;;;27.80;96.70;;;;;;4966148;28;20047;-79
2022/08/17 08:20:25;;;;;;;8.50;3.40;;;27.90;96.70;;;;;;4958568;28;19976;-79
2022/08/17 08:23:24;;;;;;;10.55;4.07;;;27.90;96.70;;;;;;4957866;28;20746;-76
2022/08/17 08:26:09;;;;;;;12.35;3.60;;;27.90;96.70;;;;;;4959997;28;20051;-78
2022/08/17 08:28:50;;;;;;;10.68;3.80;;;28.00;96.70;;;;;;4957921;28;20105;-77
2022/08/17 08:31:23;;;;;;;;;;;28.20;96.70;;;;;;4962393;28;20038;-76
2022/08/17 08:34:02;;;;;;;9.23;3.05;;;28.40;96.70;;;;;;4964093;28;19972;-78
2022/08/17 08:36:42;;;;;;;9.45;3.60;;;28.50;96.70;;;;;;4946505;28;20145;-78
2022/08/17 08:39:40;;;;;;;9.30;3.40;;;28.50;96.70;;;;;;4958857;28;20073;-78
2022/08/17 08:42:19;;;;;;;6.38;3.35;;;28.70;96.70;;;;;;4965682;28;20082;-78
2022/08/17 08:44:57;;;;;;;8.45;3.33;;;28.80;96.70;;;;;;4962775;28;20046;-79
2022/08/17 08:47:58;;;;;;;9.90;4.20;;;28.80;96.70;;;;;;4963457;28;20043;-78
2022/08/17 08:50:44;;;;;;;12.63;3.95;;;28.80;96.70;;;;;;4964452;28;20043;-78
2022/08/17 08:53:31;;;;;;;13.68;3.95;;;28.90;96.70;;;;;;4962866;28;20042;-79
2022/08/17 08:56:05;;;;;;;10.40;3.22;;;29.10;96.70;;;;;;4960936;28;20046;-79
2022/08/17 08:58:42;;;;;;;8.32;3.58;;;29.20;96.70;;;;;;4964426;28;20059;-80
2022/08/17 09:01:20;;;;;;;9.50;4.28;;;29.30;96.70;;;;;;4966637;28;20047;-79
2022/08/17 09:04:05;;;;;;;9.80;3.70;;;29.30;96.70;;;;;;4973835;28;20462;-79
2022/08/17 09:07:01;;;;;;;11.98;4.00;;;29.30;96.70;;;;;;4963053;28;20042;-79
2022/08/17 09:09:39;;;;;;;11.48;3.70;;;29.30;96.70;;;;;;4961678;28;20129;-79
2022/08/17 09:12:15;;;;;;;8.65;3.90;;;29.50;96.70;;;;;;4963886;28;20051;-77
2022/08/17 09:15:00;;;;;;;10.57;3.90;;;29.50;96.70;;;;;;4958028;28;20058;-77
2022/08/17 09:17:35;;;;;;;8.00;3.28;;;29.60;96.70;;;;;;4967506;28;20073;-77
2022/08/17 09:20:14;;;;;;;9.80;4.25;;;29.70;96.70;;;;;;4961760;28;20078;-78
2022/08/17 09:23:01;;;;;;;8.07;3.38;;;29.80;96.70;;;;;;4963630;28;20047;-78
2022/08/17 09:25:38;;;;;;;8.57;3.65;;;29.80;96.70;;;;;;4964168;28;20649;-77
2022/08/17 09:28:15;;;;;;;5.55;3.55;;;29.80;96.70;;;;;;4962615;28;20416;-78
2022/08/17 09:30:48;;;;;;;6.50;3.28;;;30.00;96.70;;;;;;4955930;28;20054;-77
2022/08/17 09:33:21;;;;;;;9.25;3.60;;;30.10;96.70;;;;;;4958052;28;20071;-78
2022/08/17 09:35:54;;;;;;;13.23;4.20;;;30.20;96.70;;;;;;4962341;28;20049;-77
2022/08/17 09:38:30;;;;;;;9.10;3.90;;;30.20;96.70;;;;;;4964241;28;20053;-77
2022/08/17 09:41:08;;;;;;;15.88;3.95;;;30.20;96.70;;;;;;4971064;28;20568;-77
2022/08/17 09:43:42;;;;;;;11.07;3.88;;;30.20;96.70;;;;;;4960877;28;20057;-77
2022/08/17 09:46:15;;;;;;;10.38;3.42;;;30.20;96.70;;;;;;4959621;28;20588;-77
2022/08/17 09:48:54;;;;;;;8.10;3.47;;;30.20;96.70;;;;;;4962109;28;20073;-77
2022/08/17 09:51:29;;;;;;;10.82;3.58;;;30.30;96.70;;;;;;4955322;28;20055;-77
2022/08/17 09:53:57;;;;;;;10.45;4.65;;;30.40;96.70;;;;;;4956915;28;20051;-77
2022/08/17 09:56:56;;;;;;;8.38;3.15;;;30.60;96.70;;;;;;4957243;28;20058;-77
2022/08/17 09:59:55;;;;;;;11.38;3.58;;;30.60;96.70;;;;;;4958960;28;20038;-77
2022/08/17 10:03:08;;;;;;;9.38;3.70;;;30.60;96.70;;;;;;4964108;28;20053;-78
2022/08/17 10:05:47;;;;;;;10.20;3.85;;;30.40;96.70;;;;;;4956730;28;20074;-78
2022/08/17 10:08:26;;;;;;;8.07;3.80;;;30.50;96.70;;;;;;4962752;28;20428;-78
2022/08/17 10:11:05;;;;;;;8.68;3.67;;;30.70;96.70;;;;;;4961709;28;20142;-78
2022/08/17 10:13:41;;;;;;;8.38;3.47;;;30.70;96.70;;;;;;4963592;28;20437;-78
2022/08/17 10:16:29;;;;;;;12.38;4.03;;;30.70;96.70;;;;;;4964516;28;20195;-78
2022/08/17 10:19:16;;;;;;;10.70;4.00;;;31.00;96.70;;;;;;4961943;28;20043;-79
2022/08/17 10:27:54;;;;;;;8.68;3.65;;;32.20;96.70;;;;;;4959908;28;20150;-79
2022/08/17 10:30:25;;;;;;;8.00;3.72;;;32.00;96.70;;;;;;4942816;28;20054;-79
2022/08/17 10:32:57;;;;;;;11.35;4.00;;;31.80;96.70;;;;;;4965081;28;20583;-79
2022/08/17 10:35:36;;;;;;;7.53;3.50;;;31.90;96.70;;;;;;4962004;28;20134;-79
2022/08/17 10:38:32;;;;;;;9.43;3.80;;;31.90;96.70;;;;;;4962469;28;20230;-79
2022/08/17 10:41:05;;;;;;;11.75;4.25;;;31.80;96.70;;;;;;4955789;28;20054;-78
2022/08/17 10:43:45;;;;;;;11.00;4.15;;;31.90;96.70;;;;;;4956744;28;20058;-79
2022/08/17 10:46:51;;;;;;;9.35;3.65;;;32.10;96.70;;;;;;4947269;28;20150;-79
2022/08/17 10:49:28;;;;;;;12.13;3.78;;;32.30;96.70;;;;;;4958384;28;20058;-79
2022/08/17 10:51:58;;;;;;;8.88;3.78;;;32.20;96.70;;;;;;4960890;28;20590;-76
2022/08/17 10:54:46;;;;;;;12.38;4.28;;;32.20;96.70;;;;;;4944475;28;20412;-76
2022/08/17 10:57:36;;;;;;;9.55;3.88;;;32.10;96.70;;;;;;4967226;28;20448;-77
2022/08/17 11:00:17;;;;;;;9.15;3.67;;;32.40;96.70;;;;;;4960085;28;20050;-79
2022/08/17 11:02:49;;;;;;;12.93;4.00;;;32.60;96.70;;;;;;4963633;28;20043;-79
2022/08/17 11:05:42;;;;;;;10.48;3.97;;;32.50;96.70;;;;;;4961574;28;20054;-79
2022/08/17 11:08:42;;;;;;;12.45;3.78;;;32.70;96.70;;;;;;4947092;28;20541;-78
2022/08/17 11:11:35;;;;;;;12.05;4.78;;;32.80;96.70;;;;;;4967776;28;20082;-76
2022/08/17 11:14:22;;;;;;;8.70;3.97;;;32.90;96.70;;;;;;4963538;28;20048;-79
2022/08/17 11:17:10;;;;;;;7.95;3.75;;;33.30;96.70;;;;;;4966333;28;20266;-76
2022/08/17 11:20:03;;;;;;;10.05;3.83;;;33.60;96.70;;;;;;4980616;28;20038;-77
2022/08/17 11:22:58;;;;;;;8.52;3.45;;;33.80;96.70;;;;;;4965349;28;20051;-77
2022/08/17 11:25:34;;;;;;;12.88;4.10;;;33.50;96.70;;;;;;4964422;28;20047;-79
2022/08/17 11:28:12;;;;;;;10.80;4.07;;;33.30;96.70;;;;;;4965612;28;20415;-76
2022/08/17 11:30:45;;;;;;;7.07;2.92;;;33.10;96.70;;;;;;4960252;28;20150;-76
2022/08/17 11:33:52;;;;;;;12.05;3.95;;;33.00;96.70;;;;;;4964704;28;20051;-79
2022/08/17 11:36:52;;;;;;;9.95;3.28;;;33.00;96.70;;;;;;4954448;28;20439;-79
2022/08/17 11:39:49;;;;;;;11.23;3.78;;;33.20;96.70;;;;;;4959397;28;20464;-79
2022/08/17 11:42:30;;;;;;;10.10;3.60;;;33.10;96.70;;;;;;4964171;28;20102;-79
2022/08/17 11:45:02;;;;;;;11.32;3.88;;;32.80;96.70;;;;;;4968060;28;20595;-79
2022/08/17 11:54:10;;;;;;;9.13;3.63;;;33.50;96.70;;;;;;4969515;28;20050;-76
2022/08/17 11:56:59;;;;;;;10.02;3.65;;;33.60;96.70;;;;;;4964907;28;20061;-77
2022/08/17 11:59:56;;;;;;;10.40;3.92;;;33.40;96.70;;;;;;4961534;28;20141;-77
2022/08/17 12:02:42;;;;;;;12.00;3.80;;;33.50;96.70;;;;;;4960661;28;20047;-77
2022/08/17 12:05:42;;;;;;;10.80;3.97;;;33.60;96.70;;;;;;4963309;28;20039;-77
2022/08/17 12:08:21;;;;;;;14.77;4.25;;;33.70;96.70;;;;;;4914642;28;20055;-77
2022/08/17 12:11:03;;;;;;;13.80;3.70;;;34.00;96.70;;;;;;4962793;28;20069;-77
2022/08/17 12:13:36;;;;;;;13.65;4.30;;;34.10;96.70;;;;;;4963312;28;20046;-78
2022/08/17 12:16:08;;;;;;;15.90;3.80;;;33.70;96.70;;;;;;4963772;28;20051;-78
2022/08/17 12:18:40;;;;;;;8.80;3.60;;;33.30;96.70;;;;;;4949227;28;20518;-78
2022/08/17 12:21:33;;;;;;;11.13;4.18;;;33.50;96.70;;;;;;4950054;28;20062;-78
2022/08/17 12:24:09;;;;;;;12.77;4.20;;;33.70;96.70;;;;;;4963755;28;20538;-78
2022/08/17 12:26:42;;;;;;;12.52;3.83;;;33.60;96.70;;;;;;4974888;28;20051;-77
2022/08/17 12:29:15;;;;;;;10.38;4.13;;;33.80;96.70;;;;;;4963474;28;20051;-78
2022/08/17 12:32:04;;;;;;;9.25;3.70;;;33.60;96.70;;;;;;4965101;28;20050;-77
2022/08/17 12:34:37;;;;;;;10.82;4.38;;;33.60;96.70;;;;;;4962976;28;20090;-77
2022/08/17 12:37:14;;;;;;;10.38;3.92;;;33.50;96.70;;;;;;4958712;28;20042;-77
2022/08/17 12:39:51;;;;;;;8.98;3.75;;;33.30;96.70;;;;;;4964154;28;20477;-78
2022/08/17 12:42:28;;;;;;;7.97;3.50;;;33.00;96.70;;;;;;4965557;28;20073;-77
2022/08/17 12:44:56;;;;;;;9.57;3.55;;;32.90;96.70;;;;;;4963243;28;20818;-78
2022/08/17 12:47:24;;;;;;;7.55;3.50;;;32.80;96.70;;;;;;4946140;28;20055;-77
2022/08/17 12:50:07;;;;;;;9.10;3.72;;;32.80;96.70;;;;;;4963012;28;20493;-78
2022/08/17 12:52:55;;;;;;;6.78;2.97;;;32.80;96.70;;;;;;4945278;28;20062;-77
2022/08/17 12:55:34;;;;;;;10.90;3.40;;;32.90;96.70;;;;;;4961704;28;20074;-77
2022/08/17 12:58:03;;;;;;;7.13;3.10;;;32.90;96.70;;;;;;4966004;28;20070;-77
2022/08/17 13:00:33;;;;;;;9.52;3.28;;;32.90;96.70;;;;;;4957292;28;20094;-78
2022/08/17 13:03:04;;;;;;;10.43;3.45;;;32.90;96.70;;;;;;4963606;28;20038;-77
2022/08/17 13:05:37;;;;;;;11.23;3.70;;;33.00;96.70;;;;;;4938183;28;20053;-78
2022/08/17 13:08:15;;;;;;;11.70;4.10;;;32.90;96.70;;;;;;4960511;28;20151;-78
2022/08/17 13:10:52;;;;;;;11.25;4.03;;;32.70;96.70;;;;;;4962647;28;20513;-78
2022/08/17 13:13:23;;;;;;;9.32;3.97;;;32.70;96.70;;;;;;4958304;28;20422;-78
2022/08/17 13:15:53;;;;;;;11.00;3.83;;;32.70;96.70;;;;;;4961892;28;20428;-78
2022/08/17 13:18:39;;;;;;;10.85;3.65;;;32.70;96.70;;;;;;4964091;28;20126;-78
2022/08/17 13:21:16;;;;;;;7.88;4.10;;;32.70;96.70;;;;;;4948364;28;20043;-78
2022/08/17 13:23:55;;;;;;;9.70;3.47;;;32.90;96.70;;;;;;4962097;28;20060;-78
2022/08/17 13:26:28;;;;;;;8.77;3.53;;;33.00;96.70;;;;;;4963881;28;20066;-79
2022/08/17 13:28:59;;;;;;;12.48;4.03;;;33.20;96.70;;;;;;4962279;28;20508;-78
2022/08/17 13:31:35;;;;;;;11.13;4.13;;;33.40;96.70;;;;;;4957415;28;20043;-78
2022/08/17 13:34:32;;;;;;;12.43;4.20;;;33.40;96.70;;;;;;4960604;28;20066;-79
2022/08/17 13:37:29;;;;;;;17.90;4.28;;;33.30;96.70;;;;;;4973011;28;20043;-79
2022/08/17 13:40:00;;;;;;;10.05;4.00;;;33.40;96.70;;;;;;4929013;28;20417;-79
2022/08/17 13:42:30;;;;;;;10.23;4.35;;;33.40;96.70;;;;;;4959032;28;20635;-79
2022/08/17 13:45:00;;;;;;;11.10;3.70;;;33.50;96.70;;;;;;4959504;28;20042;-79
2022/08/17 13:47:47;;;;;;;9.32;3.15;;;33.70;96.70;;;;;;4958595;28;20042;-78
2022/08/17 13:50:20;;;;;;;9.18;3.50;;;34.20;96.70;;;;;;4960298;28;20489;-78
2022/08/17 13:52:48;;;;;;;12.43;4.40;;;34.60;96.70;;;;;;4959435;28;20517;-78
2022/08/17 13:55:21;;;;;;;12.27;4.03;;;35.10;96.70;;;;;;4961084;28;20154;-79
2022/08/17 13:57:52;;;;;;;7.75;4.18;;;35.30;96.70;;;;;;4954506;28;20497;-77
2022/08/17 14:00:36;;;;;;;7.75;3.88;;;35.50;96.70;;;;;;4940786;28;20741;-78
2022/08/17 14:03:05;;;;;;;9.57;3.65;;;35.50;96.70;;;;;;4958675;28;20109;-77